Flight Track Log - Related Links

Times and Time Zones

All times are in EDT time to prevent confusion due to time zone crossing. See the UAL326 flight status page for this flight to view local times or setup timezone preferences in your user account.

Time Position Orientation Groundspeed Altitude Reporting Facility
EDT Latitude Longitude Course Direction KTS MPH feet Rate Location/Type
Wed 07:41:10 PM 38.9500 -77.5000 297° West 175 201 1,500  Level Potomac TRACON
Wed 07:43:29 PM 39.0714 -77.6128 324° Northwest 255 293 6,800 2,412 Climbing Washington Center
Wed 07:44:00 PM 39.3988 -77.5829 344° North  Level FlightAware
Wed 07:44:29 PM 39.1397 -77.6494 337° Northwest 267 307 9,500  Level Washington Center
Wed 07:45:00 PM 39.4718 -77.6705 288° West  Level FlightAware
Wed 07:45:30 PM 39.2203 -77.6919 338° Northwest 293 337 10,800  Level Washington Center
Wed 07:46:00 PM 39.5196 -77.8156 297° West  Level FlightAware
Wed 07:46:30 PM 39.3153 -77.7431 337° Northwest 334 384 13,500  Level Washington Center
Wed 07:47:29 PM 39.4061 -77.7914 338° Northwest 347 399 15,700 2,017 Climbing Washington Center
Wed 07:48:29 PM 39.5053 -77.8428 338° Northwest 365 420 17,500 1,988 Climbing Washington Center
Wed 07:50:21 PM 39.6125 -78.0931 299° West 378 435 21,400 4,360 Climbing Cleveland Center
Wed 07:51:21 PM 39.6531 -78.2372 290° West 402 463 30,000 1,700 Climbing Cleveland Center
Wed 07:52:21 PM 39.6978 -78.3842 292° West 425 489 24,800 -1,550 Descending Cleveland Center
Wed 07:53:21 PM 39.7403 -78.5339 290° West 435 501 26,900 1,900 Climbing Cleveland Center
Wed 07:54:21 PM 39.7822 -78.6786 291° West 441 507 28,600 1,350 Climbing Cleveland Center
Wed 07:55:21 PM 39.8136 -78.8075 288° West 434 499 29,600 850 Climbing Cleveland Center
Wed 07:56:21 PM 39.8575 -78.9578 291° West 434 499 30,300 900 Climbing Cleveland Center
Wed 07:57:21 PM 39.9056 -79.1108 292° West 450 518 31,400 1,250 Climbing Cleveland Center
Wed 07:58:21 PM 39.9428 -79.2669 287° West 456 525 32,800 1,400 Climbing Cleveland Center
Wed 07:59:21 PM 39.9656 -79.4292 280° West 456 525 34,200 1,000 Climbing Cleveland Center
Wed 08:00:21 PM 40.0022 -79.5803 288° West 450 518 34,800 850 Climbing Cleveland Center
Wed 08:01:21 PM 40.0764 -79.7094 307° West 438 504 35,900 600 Climbing Cleveland Center
Wed 08:02:21 PM 40.1481 -79.8417 305° West 443 510 36,000 50 Climbing Cleveland Center
Wed 08:03:21 PM 40.2219 -79.9794 305° West 454 522 36,000  Level Cleveland Center
Wed 08:04:21 PM 40.2914 -80.1122 304° West 454 522 36,000  Level Cleveland Center
Wed 08:05:21 PM 40.3669 -80.2506 306° West 460 529 36,000  Level Cleveland Center
Wed 08:06:21 PM 40.4422 -80.3867 306° West 465 535 36,000  Level Cleveland Center
Wed 08:07:21 PM 40.5133 -80.5203 305° West 465 535 36,000  Level Cleveland Center
Wed 08:08:21 PM 40.5861 -80.6569 305° West 460 529 36,000  Level Cleveland Center
Wed 08:09:21 PM 40.6631 -80.8047 304° West 460 529 36,000  Level Cleveland Center
Wed 08:10:21 PM 40.7336 -80.9367 305° West 454 522 36,000  Level Cleveland Center
Wed 08:11:21 PM 40.7936 -81.0658 302° West 454 522 36,000  Level Cleveland Center
Wed 08:12:21 PM 40.8533 -81.2089 299° West 454 522 36,000  Level Cleveland Center
Wed 08:13:21 PM 40.9067 -81.3550 296° West 444 511 36,000  Level Cleveland Center
Wed 08:14:21 PM 40.9597 -81.5042 295° West 444 511 36,000  Level Cleveland Center
Wed 08:15:21 PM 41.0167 -81.6675 295° West 444 511 36,000  Level Cleveland Center
Wed 08:16:22 PM 41.0694 -81.8197 295° West 444 511 36,000  Level Cleveland Center
Wed 08:17:21 PM 41.1219 -81.9669 295° West 444 511 36,000  Level Cleveland Center
Wed 08:18:21 PM 41.1764 -82.1114 297° West 444 511 36,000  Level Cleveland Center
Wed 08:19:21 PM 41.2283 -82.2672 294° West 449 517 36,000  Level Cleveland Center
Wed 08:20:21 PM 41.2742 -82.4039 294° West 449 517 36,000  Level Cleveland Center
Wed 08:21:21 PM 41.3281 -82.5519 296° West 444 511 36,000  Level Cleveland Center
Wed 08:22:21 PM 41.3794 -82.7056 294° West 444 511 36,000  Level Cleveland Center
Wed 08:23:21 PM 41.4331 -82.8514 296° West 444 511 36,000  Level Cleveland Center
Wed 08:24:21 PM 41.4842 -83.0003 295° West 444 511 36,000  Level Cleveland Center
Wed 08:25:21 PM 41.5350 -83.1519 294° West 444 511 36,000  Level Cleveland Center
Wed 08:26:21 PM 41.5817 -83.3036 292° West 444 511 36,000  Level Cleveland Center
Wed 08:27:21 PM 41.6322 -83.4531 294° West 444 511 36,000  Level Cleveland Center
Wed 08:28:21 PM 41.6844 -83.6056 295° West 444 511 36,000  Level Cleveland Center
Wed 08:29:21 PM 41.7344 -83.7583 294° West 444 511 36,000  Level Cleveland Center
Wed 08:31:32 PM 41.8408 -84.0703 295° West 440 506 36,000  Level Chicago Center
Wed 08:32:34 PM 41.8986 -84.2456 294° West 432 497 36,000  Level Chicago Center
Wed 08:33:36 PM 41.9458 -84.3922 293° West 431 496 36,000  Level Chicago Center
Wed 08:34:38 PM 41.9953 -84.5433 294° West 429 494 36,000  Level Chicago Center
Wed 08:35:40 PM 42.0419 -84.6908 293° West 430 495 36,000  Level Chicago Center
Wed 08:36:42 PM 42.0897 -84.8408 293° West 435 501 36,000  Level Chicago Center
Wed 08:37:44 PM 42.1375 -84.9919 293° West 439 505 36,000  Level Chicago Center
Wed 08:38:45 PM 42.1844 -85.1417 293° West 437 503 36,000  Level Chicago Center
Wed 08:39:47 PM 42.2425 -85.3236 293° West 440 506 36,000  Level Chicago Center
Wed 08:40:49 PM 42.2892 -85.4767 292° West 441 507 36,000  Level Chicago Center
Wed 08:41:51 PM 42.3367 -85.6256 293° West 435 501 36,000  Level Chicago Center
Wed 08:42:53 PM 42.3836 -85.7772 293° West 437 503 36,000  Level Chicago Center
Wed 08:43:55 PM 42.4297 -85.9308 292° West 440 506 36,000  Level Chicago Center
Wed 08:44:57 PM 42.4750 -86.0831 292° West 435 501 36,000  Level Chicago Center
Wed 08:45:59 PM 42.5225 -86.2361 293° West 438 504 36,000  Level Chicago Center
Wed 08:47:01 PM 42.5681 -86.3900 292° West 438 504 36,000  Level Chicago Center
Wed 08:48:03 PM 42.6225 -86.5733 292° West 436 502 36,000  Level Chicago Center
Wed 08:49:05 PM 42.6683 -86.7256 292° West 434 499 36,000  Level Chicago Center
Wed 08:50:07 PM 42.7125 -86.8756 292° West 430 495 36,000  Level Chicago Center
Wed 08:51:08 PM 42.7556 -87.0264 291° West 429 494 36,000  Level Chicago Center
Wed 08:52:10 PM 42.7992 -87.1747 292° West 423 487 36,000  Level Chicago Center
Wed 08:53:12 PM 42.8400 -87.3269 290° West 428 493 36,000  Level Chicago Center
Wed 08:54:14 PM 42.8850 -87.4878 291° West 430 495 36,000  Level Chicago Center
Wed 08:55:16 PM 42.9328 -87.6656 290° West 430 495 36,000  Level Chicago Center
Wed 08:56:18 PM 42.9747 -87.8189 291° West 432 497 36,000  Level Chicago Center
Wed 08:57:20 PM 43.0169 -87.9714 291° West 428 493 36,000  Level Chicago Center
Wed 08:58:22 PM 43.0592 -88.1281 290° West 434 499 36,000  Level Chicago Center
Wed 08:59:24 PM 43.1003 -88.2847 290° West 436 502 36,000  Level Chicago Center
Wed 09:00:26 PM 43.1414 -88.4436 290° West 438 504 36,000  Level Chicago Center
Wed 09:01:28 PM 43.1831 -88.6014 290° West 437 503 36,000  Level Chicago Center
Wed 09:02:30 PM 43.2317 -88.7878 290° West 439 505 36,000  Level Chicago Center
Wed 09:03:32 PM 43.2733 -88.9453 290° West 437 503 36,000  Level Chicago Center
Wed 09:04:34 PM 43.3139 -89.1036 289° West 436 502 36,000  Level Chicago Center
Wed 09:05:36 PM 43.3542 -89.2622 289° West 437 503 36,000  Level Chicago Center
Wed 09:06:38 PM 43.3947 -89.4197 290° West 436 502 36,000  Level Chicago Center
Wed 09:07:40 PM 43.4331 -89.5789 288° West 437 503 36,000  Level Chicago Center
Wed 09:08:42 PM 43.4717 -89.7381 289° West 437 503 36,000  Level Chicago Center
Wed 09:09:44 PM 43.5186 -89.9236 289° West 439 505 36,000  Level Chicago Center
Wed 09:10:22 PM 43.5389 -90.0022 290° West 438 504 36,000  Level Minneapolis Center
Wed 09:11:25 PM 43.5853 -90.1889 289° West 440 506 36,000  Level Minneapolis Center
Wed 09:12:27 PM 43.6183 -90.3269 288° West 437 503 36,000  Level Minneapolis Center
Wed 09:13:29 PM 43.6644 -90.5164 289° West 440 506 36,000  Level Minneapolis Center
Wed 09:14:31 PM 43.7028 -90.6736 289° West 438 504 36,000  Level Minneapolis Center
Wed 09:15:33 PM 43.7400 -90.8297 288° West 435 501 36,000  Level Minneapolis Center
Wed 09:16:35 PM 43.7772 -90.9883 288° West 437 503 36,000  Level Minneapolis Center
Wed 09:17:37 PM 43.8147 -91.1431 289° West 434 499 36,000  Level Minneapolis Center
Wed 09:18:39 PM 43.8583 -91.3314 288° West 433 498 36,000  Level Minneapolis Center
Wed 09:19:41 PM 43.8950 -91.4858 288° West 429 494 36,000  Level Minneapolis Center
Wed 09:20:43 PM 43.9308 -91.6433 288° West 432 497 36,000  Level Minneapolis Center
Wed 09:21:45 PM 43.9728 -91.8306 287° West 434 499 36,000  Level Minneapolis Center
Wed 09:22:47 PM 44.0075 -91.9900 287° West 434 499 36,000  Level Minneapolis Center
Wed 09:23:49 PM 44.0425 -92.1506 287° West 434 499 36,000  Level Minneapolis Center
Wed 09:24:51 PM 44.0722 -92.2778 288° West 435 501 36,000  Level Minneapolis Center
Wed 09:25:53 PM 44.1158 -92.4714 287° West 438 504 36,000  Level Minneapolis Center
Wed 09:26:55 PM 44.1517 -92.6342 287° West 440 506 36,000  Level Minneapolis Center
Wed 09:27:57 PM 44.1864 -92.7964 287° West 439 505 36,000  Level Minneapolis Center
Wed 09:28:59 PM 44.2292 -92.9928 287° West 442 509 36,000  Level Minneapolis Center
Wed 09:30:00 PM 44.2569 -93.1233 287° West 439 505 36,000  Level Minneapolis Center
Wed 09:31:03 PM 44.2997 -93.3217 287° West 443 510 36,000  Level Minneapolis Center
Wed 09:32:04 PM 44.3336 -93.4867 286° West 441 507 36,000  Level Minneapolis Center
Wed 09:33:06 PM 44.3683 -93.6511 287° West 440 506 36,000  Level Minneapolis Center
Wed 09:34:08 PM 44.4033 -93.8156 287° West 440 506 36,000  Level Minneapolis Center
Wed 09:35:10 PM 44.4375 -93.9800 286° West 440 506 36,000  Level Minneapolis Center
Wed 09:36:12 PM 44.4772 -94.1775 286° West 440 506 36,000  Level Minneapolis Center
Wed 09:37:14 PM 44.5111 -94.3422 286° West 440 506 36,000  Level Minneapolis Center
Wed 09:38:15 PM 44.5444 -94.5061 286° West 438 504 36,000  Level Minneapolis Center
Wed 09:39:29 PM 44.5758 -94.6669 285° West 442 509 36,000  Level Minneapolis Center
Wed 09:40:31 PM 44.6150 -94.8669 285° West 445 512 36,000  Level Minneapolis Center
Wed 09:41:33 PM 44.6536 -95.0708 285° West 451 519 36,000  Level Minneapolis Center
Wed 09:42:34 PM 44.6872 -95.2417 286° West 456 525 36,000  Level Minneapolis Center
Wed 09:43:36 PM 44.7203 -95.4142 285° West 459 528 36,000  Level Minneapolis Center
Wed 09:44:38 PM 44.7525 -95.5878 285° West 462 532 36,000  Level Minneapolis Center
Wed 09:45:39 PM 44.7856 -95.7617 285° West 464 534 36,000  Level Minneapolis Center
Wed 09:46:41 PM 44.8189 -95.9367 285° West 466 536 36,000  Level Minneapolis Center
Wed 09:47:43 PM 44.8567 -96.1481 284° West 469 540 36,000  Level Minneapolis Center
Wed 09:48:44 PM 44.8894 -96.3242 285° West 468 539 36,000  Level Minneapolis Center
Wed 09:49:58 PM 44.9200 -96.5008 284° West 468 539 36,000  Level Minneapolis Center
Wed 09:51:00 PM 44.9583 -96.7100 285° West 464 534 36,000  Level Minneapolis Center
Wed 09:52:02 PM 44.9875 -96.8839 283° West 461 531 36,000  Level Minneapolis Center
Wed 09:53:03 PM 45.0183 -97.0544 284° West 453 521 36,000  Level Minneapolis Center
Wed 09:54:05 PM 45.0483 -97.2258 284° West 452 520 36,000  Level Minneapolis Center
Wed 09:55:06 PM 45.0836 -97.4286 284° West 448 516 36,000  Level Minneapolis Center
Wed 09:56:08 PM 45.1111 -97.5978 283° West 444 511 36,000  Level Minneapolis Center
Wed 09:57:09 PM 45.1400 -97.7642 284° West 440 506 36,000  Level Minneapolis Center
Wed 09:58:11 PM 45.1678 -97.9311 283° West 438 504 36,000  Level Minneapolis Center
Wed 09:59:12 PM 45.1978 -98.1142 283° West 439 505 36,000  Level Minneapolis Center
Wed 10:00:14 PM 45.2256 -98.2806 283° West 437 503 36,000  Level Minneapolis Center
Wed 10:01:15 PM 45.2531 -98.4481 283° West 437 503 36,000  Level Minneapolis Center
Wed 10:02:17 PM 45.2781 -98.6150 282° West 435 501 36,000  Level Minneapolis Center
Wed 10:03:19 PM 45.3050 -98.7811 283° West 434 499 36,000  Level Minneapolis Center
Wed 10:04:20 PM 45.3308 -98.9475 283° West 433 498 36,000  Level Minneapolis Center
Wed 10:05:21 PM 45.3581 -99.1139 283° West 434 499 36,000  Level Minneapolis Center
Wed 10:06:23 PM 45.3878 -99.3142 282° West 434 499 36,000  Level Minneapolis Center
Wed 10:07:24 PM 45.4131 -99.4789 282° West 431 496 36,000  Level Minneapolis Center
Wed 10:08:26 PM 45.4317 -99.6106 281° West 429 494 36,000  Level Minneapolis Center
Wed 10:09:39 PM 45.4614 -99.8078 282° West 429 494 36,000  Level Minneapolis Center
Wed 10:10:53 PM 45.4911 -100.0067 282° West 431 496 36,000  Level Minneapolis Center
Wed 10:11:55 PM 45.5192 -100.2039 282° West 429 494 36,000  Level Minneapolis Center
Wed 10:12:57 PM 45.5481 -100.4028 282° West 431 496 36,000  Level Minneapolis Center
Wed 10:13:58 PM 45.5708 -100.5692 281° West 430 495 36,000  Level Minneapolis Center
Wed 10:14:59 PM 45.5894 -100.7025 281° West 430 495 36,000  Level Minneapolis Center
Wed 10:16:01 PM 45.6178 -100.9017 282° West 428 493 36,000  Level Minneapolis Center
Wed 10:17:03 PM 45.6403 -101.0669 281° West 427 491 36,000  Level Minneapolis Center
Wed 10:18:04 PM 45.6617 -101.2331 280° West 426 490 36,000  Level Minneapolis Center
Wed 10:19:06 PM 45.6833 -101.3989 281° West 426 490 36,000  Level Minneapolis Center
Wed 10:20:07 PM 45.7044 -101.5647 280° West 426 490 36,000  Level Minneapolis Center
Wed 10:21:09 PM 45.7300 -101.7628 281° West 424 488 36,000  Level Minneapolis Center
Wed 10:22:22 PM 45.7514 -101.9311 280° West 427 491 36,000  Level Minneapolis Center
Wed 10:23:24 PM 45.7756 -102.1289 280° West 425 489 36,000  Level Minneapolis Center
Wed 10:24:25 PM 45.7958 -102.2958 280° West 425 489 36,000  Level Minneapolis Center
Wed 10:25:27 PM 45.8167 -102.4633 280° West 426 490 36,000  Level Minneapolis Center
Wed 10:26:28 PM 45.8361 -102.6306 280° West 427 491 36,000  Level Minneapolis Center
Wed 10:27:30 PM 45.8606 -102.7914 282° West 424 488 36,000  Level Minneapolis Center
Wed 10:28:31 PM 45.8811 -102.9544 280° West 420 483 36,000  Level Minneapolis Center
Wed 10:29:33 PM 45.9042 -103.1514 280° West 418 481 36,000  Level Minneapolis Center
Wed 10:30:34 PM 45.9219 -103.3172 279° West 418 481 36,000  Level Minneapolis Center
Wed 10:31:36 PM 45.9411 -103.4836 279° West 420 483 36,000  Level Minneapolis Center
Wed 10:32:37 PM 45.9603 -103.6483 280° West 420 483 36,000  Level Minneapolis Center
Wed 10:33:37 PM 45.9756 -103.8194 277° West 422 486 36,000  Level Salt Center
Wed 10:34:39 PM 45.9931 -103.9833 279° West 419 482 36,000  Level Salt Center
Wed 10:35:40 PM 46.0114 -104.1506 279° West 421 484 36,000  Level Salt Center
Wed 10:36:42 PM 46.0294 -104.3164 279° West 420 483 36,000  Level Salt Center
Wed 10:37:43 PM 46.0486 -104.5033 278° West 419 482 36,000  Level Salt Center
Wed 10:38:45 PM 46.0639 -104.6617 278° West 418 481 36,000  Level Salt Center
Wed 10:39:46 PM 46.0819 -104.8458 278° West 417 480 36,000  Level Salt Center
Wed 10:40:48 PM 46.0978 -105.0072 278° West 422 486 36,000  Level Salt Center
Wed 10:41:49 PM 46.1144 -105.1664 279° West 420 483 36,000  Level Salt Center
Wed 10:42:51 PM 46.1306 -105.3517 277° West 418 481 36,000  Level Salt Center
Wed 10:43:52 PM 46.1458 -105.5108 278° West 420 483 36,000  Level Salt Center
Wed 10:44:54 PM 46.1636 -105.6978 278° West 421 484 36,000  Level Salt Center
Wed 10:45:55 PM 46.1783 -105.8578 278° West 422 486 36,000  Level Salt Center
Wed 10:46:57 PM 46.1958 -106.0444 278° West 422 486 36,000  Level Salt Center
Wed 10:47:58 PM 46.2122 -106.2069 278° West 424 488 36,000  Level Salt Center
Wed 10:49:00 PM 46.2269 -106.3700 277° West 426 490 36,000  Level Salt Center
Wed 10:50:01 PM 46.2428 -106.5581 277° West 425 489 36,000  Level Salt Center
Wed 10:51:03 PM 46.2569 -106.7192 277° West 423 487 36,000  Level Salt Center
Wed 10:52:04 PM 46.2725 -106.9089 277° West 424 488 36,000  Level Salt Center
Wed 10:53:06 PM 46.2864 -107.0697 277° West 423 487 36,000  Level Salt Center
Wed 10:54:07 PM 46.3017 -107.2547 277° West 420 483 36,000  Level Salt Center
Wed 10:55:09 PM 46.3128 -107.4167 276° West 421 484 36,000  Level Salt Center
Wed 10:56:10 PM 46.3253 -107.5769 277° West 421 484 36,000  Level Salt Center
Wed 10:57:12 PM 46.3394 -107.7653 276° West 422 486 36,000  Level Salt Center
Wed 10:58:13 PM 46.3517 -107.9256 276° West 421 484 36,000  Level Salt Center
Wed 10:59:15 PM 46.3653 -108.1144 276° West 423 487 36,000  Level Salt Center
Wed 11:00:16 PM 46.3764 -108.2761 276° West 423 487 36,000  Level Salt Center
Wed 11:01:18 PM 46.3875 -108.4381 276° West 423 487 36,000  Level Salt Center
Wed 11:02:19 PM 46.4008 -108.6289 276° West 426 490 36,000  Level Salt Center
Wed 11:03:20 PM 46.4114 -108.7903 275° West 423 487 36,000  Level Salt Center
Wed 11:04:22 PM 46.4244 -108.9814 276° West 427 491 36,000  Level Salt Center
Wed 11:05:23 PM 46.4336 -109.1467 275° West 429 494 36,000  Level Salt Center
Wed 11:06:25 PM 46.4447 -109.3103 276° West 428 493 36,000  Level Salt Center
Wed 11:07:26 PM 46.4550 -109.5067 274° West 439 505 36,000  Level Salt Center
Wed 11:08:28 PM 46.4642 -109.6731 275° West 435 501 36,000  Level Salt Center
Wed 11:09:29 PM 46.4750 -109.8669 275° West 433 498 36,000  Level Salt Center
Wed 11:10:30 PM 46.4842 -110.0353 275° West 437 503 36,000  Level Salt Center
Wed 11:11:32 PM 46.4950 -110.2319 275° West 438 504 36,000  Level Salt Center
Wed 11:12:33 PM 46.5036 -110.4000 274° West 438 504 36,000  Level Salt Center
Wed 11:13:35 PM 46.5125 -110.5697 274° West 438 504 36,000 -49 Level Salt Center
Wed 11:14:36 PM 46.5197 -110.7375 274° West 438 504 35,900  Descending Salt Center
Wed 11:15:37 PM 46.5283 -110.9139 274° West 439 505 36,000 49 Climbing Salt Center
Wed 11:16:39 PM 46.5389 -111.1247 274° West 437 503 36,000  Level Salt Center
Wed 11:17:40 PM 46.5458 -111.3069 273° West 439 505 36,000 -49 Level Salt Center
Wed 11:18:41 PM 46.5531 -111.4819 273° West 444 511 35,900  Descending Salt Center
Wed 11:19:43 PM 46.5606 -111.6614 274° West 445 512 36,000 49 Climbing Salt Center
Wed 11:20:44 PM 46.5672 -111.8414 273° West 446 513 36,000  Level Salt Center
Wed 11:21:45 PM 46.5742 -112.0214 273° West 446 513 36,000 -49 Level Salt Center
Wed 11:22:46 PM 46.5808 -112.2025 273° West 449 517 35,900  Descending Salt Center
Wed 11:23:48 PM 46.5872 -112.3833 273° West 450 518 36,000  Climbing Salt Center
Wed 11:24:49 PM 46.5925 -112.5642 272° West 448 516 35,900 -49 Descending Salt Center
Wed 11:25:50 PM 46.5972 -112.7428 272° West 444 511 35,900 49 Level Salt Center
Wed 11:26:52 PM 46.6042 -112.9614 273° West 451 519 36,000  Climbing Salt Center
Wed 11:27:53 PM 46.6092 -113.1408 272° West 444 511 35,900  Descending Salt Center
Wed 11:28:54 PM 46.6147 -113.3261 273° West 444 511 36,000 49 Climbing Salt Center
Wed 11:29:55 PM 46.6189 -113.5061 272° West 445 512 36,000  Level Salt Center
Wed 11:30:57 PM 46.6222 -113.6847 272° West 443 510 36,000  Level Salt Center
Wed 11:31:58 PM 46.6267 -113.8636 272° West 443 510 36,000  Level Salt Center
Wed 11:32:59 PM 46.6300 -114.0436 272° West 445 512 36,000  Level Salt Center
Wed 11:34:01 PM 46.6336 -114.2225 272° West 443 510 36,000  Level Salt Center
Wed 11:35:02 PM 46.6361 -114.4025 271° West 444 511 36,000  Level Salt Center
Wed 11:36:03 PM 46.6386 -114.5833 271° West 447 514 36,000 -49 Level Salt Center
Wed 11:37:04 PM 46.6408 -114.7650 271° West 449 517 35,900  Descending Salt Center
Wed 11:38:05 PM 46.6431 -114.9458 271° West 449 517 36,000 49 Climbing Salt Center
Wed 11:39:07 PM 46.6447 -115.1278 271° West 451 519 36,000  Level Salt Center
Wed 11:39:48 PM 46.6467 -115.2778 271° West 449 517 36,000  Level Seattle Center
Wed 11:40:49 PM 46.6481 -115.4600 271° West 452 520 36,000 -49 Level Seattle Center
Wed 11:41:50 PM 46.6483 -115.6425 270° West 451 519 35,900  Descending Seattle Center
Wed 11:42:50 PM 46.6497 -115.8233 271° West 450 518 36,000  Climbing Seattle Center
Wed 11:43:51 PM 46.6497 -116.0058 270° West 451 519 35,900  Descending Seattle Center
Wed 11:44:51 PM 46.6494 -116.1875 270° West 450 518 36,000 50 Climbing Seattle Center
Wed 11:45:52 PM 46.6492 -116.3711 270° West 454 522 36,000  Level Seattle Center
Wed 11:46:53 PM 46.6489 -116.5528 270° West 450 518 36,000  Level Seattle Center
Wed 11:47:53 PM 46.6481 -116.7361 270° West 452 520 36,000 -50 Level Seattle Center
Wed 11:48:54 PM 46.6469 -116.9178 270° West 451 519 35,900  Descending Seattle Center
Wed 11:49:54 PM 46.6461 -117.0994 270° West 449 517 36,000 50 Climbing Seattle Center
Wed 11:50:55 PM 46.6439 -117.2825 269° West 450 518 36,000  Level Seattle Center
Wed 11:51:56 PM 46.6417 -117.4650 269° West 452 520 36,000 -50 Level Seattle Center
Wed 11:52:56 PM 46.6394 -117.6486 269° West 452 520 35,900  Descending Seattle Center
Wed 11:53:57 PM 46.6378 -117.8328 269° West 456 525 36,000 49 Climbing Seattle Center
Wed 11:54:58 PM 46.6342 -118.0186 268° West 459 528 36,000 -50 Level Seattle Center
Wed 11:55:58 PM 46.6314 -118.2056 269° West 461 531 35,900  Descending Seattle Center
Wed 11:56:59 PM 46.6272 -118.3906 268° West 460 529 36,000 49 Climbing Seattle Center
Wed 11:58:00 PM 46.6239 -118.5775 269° West 462 532 36,000  Level Seattle Center
Wed 11:59:00 PM 46.6186 -118.8011 268° West 462 532 36,000  Level Seattle Center
Thu 12:00:01 AM 46.6147 -118.9758 268° West 467 537 36,000  Level Seattle Center
Thu 12:01:02 AM 46.6100 -119.1614 268° West 462 532 36,000  Level Seattle Center
Thu 12:02:02 AM 46.6056 -119.3478 268° West 464 534 36,000  Level Seattle Center
Thu 12:03:03 AM 46.5992 -119.5336 267° West 463 533 36,000  Level Seattle Center
Thu 12:04:04 AM 46.5942 -119.7206 268° West 465 535 36,000  Level Seattle Center
Thu 12:05:04 AM 46.5875 -119.9078 267° West 467 537 36,000 -298 Level Seattle Center
Thu 12:06:05 AM 46.5822 -120.0944 268° West 466 536 35,400 -1,770 Descending Seattle Center
Thu 12:07:06 AM 46.5756 -120.2822 267° West 468 539 32,400 -3,471 Descending Seattle Center
Thu 12:08:06 AM 46.5942 -120.5031 277° West 470 541 28,400 -3,273 Descending Seattle Center
Thu 12:09:07 AM 46.6656 -120.6519 305° West 454 522 25,800 -2,607 Descending Seattle Center
Thu 12:10:08 AM 46.7383 -120.7969 306° West 446 513 23,100 -2,628 Descending Seattle Center
Thu 12:11:08 AM 46.8053 -120.9392 305° West 430 495 20,500 -2,579 Descending Seattle Center
Thu 12:12:09 AM 46.8700 -121.0789 304° West 420 483 17,900 -2,459 Descending Seattle Center
Thu 12:13:10 AM 46.9322 -121.2153 304° West 406 467 15,500 -2,380 Descending Seattle Center
Thu 12:14:10 AM 46.9919 -121.3514 303° West 399 459 13,100 -2,067 Descending Seattle Center
Thu 12:14:40 AM 47.0300 -121.4181 310° West 387 445 12,400 -885 Descending Seattle Center
Thu 12:15:11 AM 47.0575 -121.4825 302° West 353 406 12,200 -304 Descending Seattle Center
Thu 12:15:59 AM 47.0961 -121.5669 304° West 311 358 12,000 -550 Descending Seattle Center
Thu 12:17:00 AM 47.1378 -121.6742 300° West 301 346 11,200 -1,041 Descending Seattle Center
Thu 12:18:00 AM 47.1656 -121.7894 290° West 296 341 9,900 -1,339 Descending Seattle Center
Thu 12:19:01 AM 47.1897 -121.9000 288° West 290 334 8,500 -1,328 Descending Seattle Center
Thu 12:20:02 AM 47.2036 -122.0228 279° West 280 322 7,200 -1,279 Descending Seattle Center
Thu 12:21:03 AM 47.2128 -122.1356 277° West 277 319 5,900 -1,190 Descending Seattle Center
Thu 12:21:58 AM 47.2269 -122.2256 283° West 264 304 4,900 -1,151 Descending Seattle Center
Thu 12:22:16 AM 47.2389 -122.2606 297° West 258 297 4,500 -1,091 Descending Seattle Center
Thu 12:23:04 AM 47.2744 -122.3072 318° Northwest 222 255 3,700 -1,148 Descending Seattle Center
Thu 12:24:11 AM 47.3303 -122.3092 359° North 176 203 2,300 -1,075 Descending Seattle Center
Thu 12:25:18 AM 47.3819 -122.3103 359° North 155 178 1,300 -750 Descending Seattle Center
Thu 12:26:19 AM 47.4197 -122.3083 North 135 155 700 -443 Descending Seattle Center
Thu 12:27:20 AM 47.4567 -122.3078 North 130 150 400 -295 Descending Seattle Center

Login

Don't have an account? Register now (free) for customized features, flight alerts, and more!